Time;durP1;ratioP1;P1;durP2;ratioP2;P2;SDS_P1;SDS_P2;PMS_P1;PMS_P2;Temp;Humidity;BMP_temperature;BMP_pressure;BME280_temperature;BME280_humidity;BME280_pressure;Samples;Min_cycle;Max_cycle;Signal;HPM_P1;HPM_P2
2022/10/27 00:00:58;;;;;;;6.18;3.10;;;;;;;14.28;71.52;97473.75;4916513;29;20060;-78
2022/10/27 00:03:25;;;;;;;13.25;3.20;;;;;;;14.24;71.65;97477.75;4916479;29;20055;-77
2022/10/27 00:06:03;;;;;;;;;;;;;;;14.26;71.82;97481.81;4916867;29;20056;-78
2022/10/27 00:08:30;;;;;;;8.05;3.03;;;;;;;14.22;71.45;97481.38;4916023;29;19923;-77
2022/10/27 00:10:59;;;;;;;6.28;3.20;;;;;;;14.19;71.65;97487.00;4916095;29;20052;-77
2022/10/27 00:13:27;;;;;;;8.70;3.42;;;;;;;14.17;71.49;97477.69;4916217;29;20052;-77
2022/10/27 00:15:56;;;;;;;10.50;2.83;;;;;;;14.16;71.78;97478.66;4916065;29;20498;-79
2022/10/27 00:18:24;;;;;;;11.07;3.80;;;;;;;14.16;71.69;97481.28;4914621;29;20051;-78
2022/10/27 00:21:00;;;;;;;4.32;2.53;;;;;;;14.16;72.00;97481.28;4915202;29;20060;-77
2022/10/27 00:23:28;;;;;;;6.60;2.85;;;;;;;14.14;71.64;97478.84;4915741;29;20051;-77
2022/10/27 00:25:56;;;;;;;11.55;2.95;;;;;;;14.13;71.44;97481.66;4915824;29;20056;-77
2022/10/27 00:28:24;;;;;;;9.10;3.45;;;;;;;14.12;71.87;97482.63;4915448;29;20052;-77
2022/10/27 00:30:58;;;;;;;6.20;2.55;;;;;;;14.12;72.06;97483.44;4915476;29;20071;-78
2022/10/27 00:33:25;;;;;;;6.93;3.35;;;;;;;14.14;72.00;97486.69;4915795;29;20133;-77
2022/10/27 00:35:53;;;;;;;6.35;3.28;;;;;;;14.13;71.71;97492.16;4915781;29;20510;-78
2022/10/27 00:38:23;;;;;;;6.38;2.97;;;;;;;14.12;71.53;97498.38;4915418;29;20063;-77
2022/10/27 00:40:50;;;;;;;4.38;2.55;;;;;;;14.12;71.92;97493.13;4915786;29;20055;-77
2022/10/27 00:43:29;;;;;;;5.55;2.67;;;;;;;14.15;72.42;97492.78;4915901;29;20048;-78
2022/10/27 00:46:02;;;;;;;7.13;2.63;;;;;;;14.17;72.74;97490.78;4915841;29;20056;-77
2022/10/27 00:48:32;;;;;;;6.90;3.13;;;;;;;14.19;72.16;97491.41;4914983;29;20044;-77
2022/10/27 00:51:02;;;;;;;8.30;3.55;;;;;;;14.19;71.53;97501.91;4915662;29;20059;-77
2022/10/27 00:53:32;;;;;;;6.57;2.78;;;;;;;14.17;72.07;97493.41;4914889;29;20052;-77
2022/10/27 00:56:01;;;;;;;11.05;3.38;;;;;;;14.15;71.40;97498.03;4915819;29;20052;-78
2022/10/27 00:58:28;;;;;;;8.30;3.15;;;;;;;14.11;71.55;97494.16;4915529;29;20104;-77
2022/10/27 01:00:56;;;;;;;5.72;2.90;;;;;;;14.12;72.23;97495.75;4927211;29;20056;-78
2022/10/27 01:03:24;;;;;;;7.50;2.90;;;;;;;14.11;71.92;97488.91;4925643;29;20075;-78
2022/10/27 01:05:52;;;;;;;5.28;2.58;;;;;;;14.09;71.74;97498.75;4916469;29;20137;-77
2022/10/27 01:08:22;;;;;;;11.32;3.75;;;;;;;14.04;71.48;97506.34;4915669;29;20051;-78
2022/10/27 01:10:52;;;;;;;11.75;3.83;;;;;;;14.00;71.49;97509.34;4915162;29;20060;-78
2022/10/27 01:13:20;;;;;;;9.50;3.40;;;;;;;13.98;71.66;97500.81;4915238;29;20056;-77
2022/10/27 01:16:00;;;;;;;9.80;3.78;;;;;;;14.01;73.47;97508.34;4915489;29;20052;-78
2022/10/27 01:18:39;;;;;;;6.47;2.88;;;;;;;14.06;73.54;97499.94;4915376;29;20066;-77
2022/10/27 01:21:39;;;;;;;5.63;2.50;;;;;;;14.07;73.51;97493.69;4915475;29;20064;-77
2022/10/27 01:24:37;;;;;;;5.13;2.63;;;;;;;14.08;73.48;97499.72;4913586;29;20064;-76
2022/10/27 01:27:15;;;;;;;8.95;3.42;;;;;;;14.02;72.01;97511.78;4913831;29;20056;-77
2022/10/27 01:30:03;;;;;;;7.20;2.60;;;;;;;13.97;72.18;97509.72;4913793;29;20157;-78
2022/10/27 01:32:41;;;;;;;11.52;2.95;;;;;;;13.95;72.19;97509.06;4913824;29;20052;-77
2022/10/27 01:35:18;;;;;;;7.70;3.75;;;;;;;13.94;71.93;97509.25;4914016;29;20056;-77
2022/10/27 01:37:48;;;;;;;11.38;3.92;;;;;;;13.90;71.50;97513.22;4913466;29;20052;-77
2022/10/27 01:40:23;;;;;;;6.43;3.40;;;;;;;13.86;72.01;97502.25;4915161;29;20055;-78
2022/10/27 01:42:56;;;;;;;8.32;3.97;;;;;;;13.86;71.33;97504.88;4915356;29;20495;-78
2022/10/27 01:45:26;;;;;;;7.25;4.05;;;;;;;13.84;70.97;97499.03;4915361;29;20055;-78
2022/10/27 01:47:57;;;;;;;6.43;4.00;;;;;;;13.88;74.60;97505.53;4915383;29;20048;-77
2022/10/27 01:50:28;;;;;;;8.93;4.00;;;;;;;13.92;75.30;97500.75;4918025;29;20129;-77
2022/10/27 01:53:16;;;;;;;7.13;4.20;;;;;;;13.96;75.33;97500.19;4918815;29;20055;-77
2022/10/27 01:55:55;;;;;;;8.50;4.65;;;;;;;13.99;76.72;97491.97;4918856;29;20048;-78
2022/10/27 01:58:40;;;;;;;8.90;3.65;;;;;;;13.97;73.37;97493.13;4918405;29;20048;-78
2022/10/27 02:01:20;;;;;;;11.18;4.28;;;;;;;13.91;72.43;97494.69;4918596;29;20426;-78
2022/10/27 02:03:58;;;;;;;7.40;3.70;;;;;;;13.89;72.94;97501.91;4918926;29;20119;-77
2022/10/27 02:06:31;;;;;;;7.28;3.35;;;;;;;13.85;73.18;97498.03;4918430;29;20502;-77
2022/10/27 02:09:05;;;;;;;6.95;3.70;;;;;;;13.84;72.65;97496.41;4918358;29;20044;-77
2022/10/27 02:11:35;;;;;;;8.13;3.90;;;;;;;13.82;72.67;97493.16;4918424;29;20052;-78
2022/10/27 02:14:03;;;;;;;7.90;3.53;;;;;;;13.81;73.80;97487.06;4918241;29;20091;-78
2022/10/27 02:16:34;;;;;;;6.82;3.60;;;;;;;13.76;72.36;97491.25;4918433;29;20403;-78
2022/10/27 02:19:08;;;;;;;5.65;3.72;;;;;;;13.75;73.67;97489.59;4918027;29;20128;-77
2022/10/27 02:21:37;;;;;;;5.22;3.47;;;;;;;13.69;72.10;97485.09;4918785;29;20059;-78
2022/10/27 02:24:05;;;;;;;8.73;3.47;;;;;;;13.67;72.34;97487.09;4920402;29;20129;-78
2022/10/27 02:26:38;;;;;;;7.57;3.60;;;;;;;13.63;71.58;97485.81;4922507;29;20044;-78
2022/10/27 02:29:12;;;;;;;13.05;3.75;;;;;;;13.59;71.92;97486.16;4921886;29;20063;-78
2022/10/27 02:31:45;;;;;;;7.50;3.72;;;;;;;13.55;71.89;97484.88;4921005;29;20474;-78
2022/10/27 02:34:15;;;;;;;7.65;3.15;;;;;;;13.54;72.27;97483.25;4918019;29;20052;-77
2022/10/27 02:36:43;;;;;;;6.28;2.80;;;;;;;13.55;72.98;97486.69;4918161;29;20052;-77
2022/10/27 02:39:10;;;;;;;8.38;4.00;;;;;;;13.59;73.75;97488.78;4917382;29;20044;-77
2022/10/27 02:41:38;;;;;;;5.47;3.00;;;;;;;13.63;74.11;97496.28;4917811;29;20052;-77
2022/10/27 02:44:05;;;;;;;4.65;2.90;;;;;;;13.64;74.23;97493.47;4917858;29;20099;-77
2022/10/27 02:46:33;;;;;;;8.15;3.22;;;;;;;13.62;73.14;97494.66;4917645;29;20107;-78
2022/10/27 02:49:00;;;;;;;6.07;3.53;;;;;;;13.61;73.44;97488.59;4917299;29;20064;-78
2022/10/27 02:51:29;;;;;;;8.75;3.63;;;;;;;13.60;72.99;97495.66;4917429;29;20056;-77
2022/10/27 02:53:57;;;;;;;5.90;3.80;;;;;;;13.61;73.99;97491.22;4917860;29;20048;-77
2022/10/27 02:56:24;;;;;;;7.78;3.90;;;;;;;13.55;71.86;97489.31;4917746;29;20056;-78
2022/10/27 02:58:52;;;;;;;6.88;3.70;;;;;;;13.51;73.80;97493.28;4917109;29;20055;-77
2022/10/27 03:01:19;;;;;;;6.22;3.20;;;;;;;13.52;74.71;97490.47;4917090;29;20550;-78
2022/10/27 03:03:47;;;;;;;8.70;4.38;;;;;;;13.58;75.58;97489.78;4917326;29;20083;-78
2022/10/27 03:06:15;;;;;;;9.23;4.68;;;;;;;13.62;74.77;97492.84;4917324;29;20068;-78
2022/10/27 03:08:43;;;;;;;11.82;4.32;;;;;;;13.65;74.92;97489.06;4917208;29;20044;-78
2022/10/27 03:11:11;;;;;;;6.75;3.97;;;;;;;13.66;74.95;97494.09;4917647;29;20051;-78
2022/10/27 03:13:39;;;;;;;12.80;4.75;;;;;;;13.66;75.63;97493.31;4917274;29;20052;-78
2022/10/27 03:16:07;;;;;;;10.07;4.00;;;;;;;13.59;73.17;97490.59;4917324;29;20056;-78
2022/10/27 03:18:35;;;;;;;6.15;3.80;;;;;;;13.47;71.30;97492.84;4916614;29;20058;-78
2022/10/27 03:21:03;;;;;;;8.15;3.70;;;;;;;13.38;71.78;97491.25;4917196;29;20095;-77
2022/10/27 03:23:30;;;;;;;6.68;3.83;;;;;;;13.40;74.47;97491.91;4917145;29;20100;-78
2022/10/27 03:25:59;;;;;;;4.70;3.85;;;;;;;13.41;74.48;97493.53;4917069;29;20060;-77
2022/10/27 03:28:29;;;;;;;5.32;4.10;;;;;;;13.43;75.19;97486.31;4916727;29;20457;-77
2022/10/27 03:30:56;;;;;;;8.70;4.22;;;;;;;13.43;73.61;97491.56;4916816;29;20056;-78
2022/10/27 03:33:24;;;;;;;9.50;4.20;;;;;;;13.42;74.08;97495.16;4917014;29;20056;-77
2022/10/27 03:35:51;;;;;;;11.13;4.30;;;;;;;13.37;72.66;97494.88;4916925;29;20052;-77
2022/10/27 03:38:19;;;;;;;5.45;3.72;;;;;;;13.32;73.04;97505.91;4916662;29;20056;-78
2022/10/27 03:40:46;;;;;;;7.32;3.97;;;;;;;13.26;73.84;97495.28;4916493;29;20063;-78
2022/10/27 03:43:15;;;;;;;9.50;3.88;;;;;;;13.18;71.16;97509.25;4916744;29;20063;-77
2022/10/27 03:45:43;;;;;;;9.10;3.75;;;;;;;13.20;73.55;97509.88;4916676;29;20063;-78
2022/10/27 03:48:12;;;;;;;11.70;4.55;;;;;;;13.18;73.13;97504.84;4916578;29;20060;-78
2022/10/27 03:50:40;;;;;;;7.65;3.30;;;;;;;13.20;74.15;97504.66;4928147;29;20051;-77
2022/10/27 03:53:07;;;;;;;11.10;3.72;;;;;;;13.23;73.67;97506.09;4931165;29;20055;-78
2022/10/27 03:55:35;;;;;;;7.40;4.13;;;;;;;13.22;73.88;97501.84;4918747;29;20048;-77
2022/10/27 03:58:03;;;;;;;9.80;4.65;;;;;;;13.20;73.73;97502.84;4916586;29;20627;-80
2022/10/27 04:00:32;;;;;;;7.20;4.20;;;;;;;13.19;74.63;97501.22;4916694;29;20103;-77
2022/10/27 04:02:59;;;;;;;6.78;4.10;;;;;;;13.19;73.97;97511.69;4916718;29;20147;-78
2022/10/27 04:05:27;;;;;;;7.55;4.40;;;;;;;13.18;73.88;97515.31;4916627;29;20060;-77
2022/10/27 04:07:54;;;;;;;8.50;4.38;;;;;;;13.11;71.16;97517.00;4916216;29;20052;-77
2022/10/27 04:10:22;;;;;;;5.55;4.00;;;;;;;13.07;73.23;97518.31;4916363;29;20044;-77
2022/10/27 04:12:51;;;;;;;7.53;4.20;;;;;;;12.93;70.20;97506.00;4916002;29;20054;-77
2022/10/27 04:15:20;;;;;;;12.40;4.00;;;;;;;12.85;71.41;97516.53;4916485;29;20055;-78
2022/10/27 04:17:52;;;;;;;7.72;5.07;;;;;;;12.80;70.68;97522.28;4915836;29;20068;-78
2022/10/27 04:20:19;;;;;;;10.32;4.50;;;;;;;12.84;73.15;97523.56;4916118;29;20050;-78
2022/10/27 04:22:47;;;;;;;6.72;4.38;;;;;;;12.85;73.34;97522.56;4916008;29;20524;-77
2022/10/27 04:25:17;;;;;;;8.85;4.72;;;;;;;12.82;72.28;97522.13;4915520;29;20048;-78
2022/10/27 04:27:45;;;;;;;8.07;5.18;;;;;;;12.80;72.27;97521.47;4916045;29;20059;-79
2022/10/27 04:30:13;;;;;;;7.40;4.63;;;;;;;12.78;73.19;97514.59;4908052;29;20419;-78
2022/10/27 04:32:40;;;;;;;15.38;6.18;;;;;;;12.79;73.84;97510.19;4902106;29;20059;-76
2022/10/27 04:35:09;;;;;;;17.60;7.72;;;;;;;12.82;74.93;97509.03;4910774;29;20052;-78
2022/10/27 04:37:37;;;;;;;11.25;7.47;;;;;;;12.85;75.54;97508.66;4914697;29;20052;-77
2022/10/27 05:05:42;;;;;;;13.68;7.93;;;;;;;13.00;79.42;97504.31;5102741;23;20056;-75
2022/10/27 05:08:10;;;;;;;15.13;9.70;;;;;;;13.07;79.37;97499.19;4920663;29;20149;-82
2022/10/27 05:10:48;;;;;;;17.60;9.25;;;;;;;13.09;78.33;97502.44;5117402;23;20042;-82
2022/10/27 05:16:13;;;;;;;12.75;9.00;;;;;;;13.05;77.51;97504.59;3928698;23;20107;-81
2022/10/27 05:18:49;;;;;;;17.55;9.93;;;;;;;13.02;77.30;97501.53;4939979;29;20063;-79
2022/10/27 05:21:27;;;;;;;24.05;12.30;;;;;;;12.99;77.36;97510.56;4923167;29;20048;-79
2022/10/27 05:24:08;;;;;;;20.45;12.85;;;;;;;12.98;77.48;97520.19;4940128;29;20116;-79
2022/10/27 05:27:02;;;;;;;18.15;11.68;;;;;;;12.99;78.05;97516.59;4943879;29;20048;-79
2022/10/27 05:29:50;;;;;;;17.80;11.88;;;;;;;12.99;77.95;97510.56;4944734;29;20040;-82
2022/10/27 05:32:23;;;;;;;18.75;12.45;;;;;;;13.01;77.83;97513.81;4944741;29;20056;-82
2022/10/27 05:35:06;;;;;;;22.40;12.85;;;;;;;13.02;77.82;97515.44;4944790;29;20044;-79
2022/10/27 05:37:47;;;;;;;21.70;12.95;;;;;;;13.03;78.25;97511.84;4944491;29;20064;-82
2022/10/27 05:40:24;;;;;;;21.77;13.27;;;;;;;13.04;78.04;97510.03;4944482;29;20040;-82
2022/10/27 05:43:01;;;;;;;19.85;13.27;;;;;;;13.01;78.04;97508.56;4944409;29;20048;-81
2022/10/27 05:45:39;;;;;;;23.70;15.15;;;;;;;13.01;78.38;97516.44;4943343;29;20052;-80
2022/10/27 05:48:18;;;;;;;21.75;15.00;;;;;;;13.00;78.40;97506.94;4988863;23;20056;-79
2022/10/27 05:51:40;;;;;;;23.30;13.70;;;;;;;13.02;79.54;97504.16;4944173;29;20060;-84
2022/10/27 05:54:29;;;;;;;23.77;14.38;;;;;;;13.02;78.50;97507.56;5101237;23;20068;-79
2022/10/27 05:57:07;;;;;;;23.05;13.15;;;;;;;13.03;78.10;97506.59;4923531;29;20041;-81
2022/10/27 05:59:43;;;;;;;24.65;12.93;;;;;;;13.03;78.16;97503.97;4924091;29;20081;-80
2022/10/27 06:02:24;;;;;;;19.73;11.65;;;;;;;13.06;78.12;97502.81;4924492;29;20048;-79
2022/10/27 06:08:41;;;;;;;19.85;10.05;;;;;;;13.11;78.25;97501.28;4942479;29;20069;-84
2022/10/27 06:11:37;;;;;;;18.92;10.13;;;;;;;13.14;77.56;97503.56;5187708;23;20052;-80
2022/10/27 06:14:15;;;;;;;14.70;10.25;;;;;;;13.15;77.62;97505.19;4943170;29;20052;-78
2022/10/27 06:16:50;;;;;;;17.58;8.43;;;;;;;13.18;77.44;97506.63;4943148;29;20123;-79
2022/10/27 06:19:32;;;;;;;15.50;8.50;;;;;;;13.22;77.65;97499.25;4942768;29;20055;-79
2022/10/27 06:22:12;;;;;;;13.35;9.27;;;;;;;13.23;77.54;97503.47;4943086;29;20118;-81
2022/10/27 06:24:49;;;;;;;12.50;8.55;;;;;;;13.26;77.49;97511.81;4943740;29;20039;-81
2022/10/27 06:27:27;;;;;;;10.52;7.72;;;;;;;13.28;77.20;97512.47;4943185;29;20054;-79
2022/10/27 06:30:04;;;;;;;12.88;8.65;;;;;;;13.30;76.74;97512.31;4942513;29;20042;-80
2022/10/27 06:32:46;;;;;;;11.23;7.00;;;;;;;13.29;76.67;97516.72;4942159;29;20087;-78
2022/10/27 06:35:26;;;;;;;13.15;7.78;;;;;;;13.31;76.80;97519.16;4988203;23;20055;-80
2022/10/27 06:38:15;;;;;;;11.18;6.80;;;;;;;13.36;77.95;97533.38;4942430;29;20124;-79
2022/10/27 06:41:06;;;;;;;15.45;7.32;;;;;;;13.39;76.57;97533.03;4942751;29;20059;-79
2022/10/27 06:43:52;;;;;;;12.85;6.63;;;;;;;13.47;76.61;97540.00;4942193;29;20056;-79
2022/10/27 06:46:33;;;;;;;10.43;6.50;;;;;;;13.55;75.99;97542.53;4942553;29;20043;-79
2022/10/27 06:49:09;;;;;;;11.35;6.30;;;;;;;13.66;75.39;97540.50;4942260;29;20115;-80
2022/10/27 06:51:49;;;;;;;9.63;6.38;;;;;;;13.73;75.01;97536.16;4971472;23;20056;-79
2022/10/27 06:54:23;;;;;;;9.88;6.13;;;;;;;13.83;74.42;97534.09;4925399;29;20115;-79
2022/10/27 06:57:01;;;;;;;12.73;6.82;;;;;;;13.96;74.29;97539.53;4941773;29;20110;-79
2022/10/27 06:59:37;;;;;;;10.40;5.82;;;;;;;14.09;73.57;97543.34;4942051;29;20075;-78
2022/10/27 07:02:19;;;;;;;9.80;5.28;;;;;;;14.20;73.35;97545.53;4940878;29;20032;-78
2022/10/27 07:04:51;;;;;;;13.40;5.47;;;;;;;14.33;73.05;97544.88;4941914;29;20060;-80
2022/10/27 07:07:26;;;;;;;14.93;6.53;;;;;;;14.41;72.51;97532.47;4941712;29;20234;-79
2022/10/27 07:10:11;;;;;;;11.85;6.25;;;;;;;14.52;72.29;97548.75;4941389;29;20040;-80
2022/10/27 07:12:56;;;;;;;;;;;;;;;14.61;72.05;97547.69;4941791;29;20056;-79
2022/10/27 07:15:37;;;;;;;11.45;5.30;;;;;;;14.65;71.78;97543.72;4926733;29;19918;-81
2022/10/27 07:18:28;;;;;;;10.65;5.07;;;;;;;14.69;71.87;97555.44;4942293;29;20092;-82
2022/10/27 07:21:03;;;;;;;14.35;6.03;;;;;;;14.74;71.63;97547.84;4938775;29;20060;-79
2022/10/27 07:23:43;;;;;;;14.63;6.50;;;;;;;14.82;71.29;97545.13;4941480;29;20063;-79
2022/10/27 07:26:17;;;;;;;10.57;5.18;;;;;;;14.88;71.15;97554.06;4941248;29;20061;-79
2022/10/27 07:29:12;;;;;;;12.82;5.30;;;;;;;14.98;71.14;97559.03;4941366;29;20111;-79
2022/10/27 07:31:55;;;;;;;12.93;5.72;;;;;;;15.07;70.50;97560.53;4941334;29;20044;-79
2022/10/27 07:34:36;;;;;;;12.82;5.65;;;;;;;15.17;70.33;97566.28;4942696;29;20056;-82
2022/10/27 07:37:16;;;;;;;11.40;6.07;;;;;;;15.27;70.04;97563.34;4941755;29;20069;-79
2022/10/27 07:39:56;;;;;;;11.80;5.18;;;;;;;15.39;70.26;97567.13;4941760;29;20039;-78
2022/10/27 07:42:28;;;;;;;7.80;5.07;;;;;;;15.52;69.43;97566.41;4941266;29;20042;-79
2022/10/27 07:45:17;;;;;;;11.10;5.43;;;;;;;15.63;68.95;97573.78;4922056;29;20071;-79
2022/10/27 07:48:02;;;;;;;13.88;6.07;;;;;;;15.79;68.81;97585.06;4921292;29;20053;-78
2022/10/27 07:50:37;;;;;;;10.55;5.65;;;;;;;15.95;68.44;97576.06;4922048;29;20065;-79
2022/10/27 07:53:25;;;;;;;10.18;5.38;;;;;;;16.14;67.91;97587.75;4921820;29;20036;-80
2022/10/27 07:56:04;;;;;;;11.68;5.78;;;;;;;16.37;67.26;97585.66;4921666;29;20090;-80
2022/10/27 07:58:52;;;;;;;12.27;6.18;;;;;;;16.60;67.06;97587.19;4922037;29;20064;-80
2022/10/27 08:01:27;;;;;;;14.13;6.05;;;;;;;16.85;65.94;97587.53;4921047;29;20057;-79
2022/10/27 08:04:15;;;;;;;11.60;5.53;;;;;;;17.09;65.02;97597.53;4922064;29;20079;-80
2022/10/27 08:07:04;;;;;;;16.85;6.07;;;;;;;17.37;64.33;97595.78;4921426;29;20045;-79
2022/10/27 08:13:06;;;;;;;14.35;6.18;;;;;;;17.94;63.06;97591.78;4920740;29;20036;-78
2022/10/27 08:16:07;;;;;;;12.98;5.63;;;;;;;18.22;62.19;97588.91;4920948;29;20121;-79
2022/10/27 08:25:31;;;;;;;10.25;5.07;;;;;;;19.20;59.65;97590.59;4921921;29;20043;-80
2022/10/27 08:28:25;;;;;;;13.88;6.00;;;;;;;19.43;58.49;97587.38;4916774;29;20052;-79
2022/10/27 08:34:15;;;;;;;12.38;5.53;;;;;;;19.98;57.07;97581.47;4921616;29;20044;-80
2022/10/27 08:37:05;;;;;;;10.02;4.95;;;;;;;20.36;56.73;97593.78;4921478;29;20079;-80
2022/10/27 09:28:48;;;;;;;9.80;2.70;;;;;;;30.85;33.56;97573.84;4923122;29;20071;-80
2022/10/27 10:31:36;;;;;;;6.25;1.70;;;;;;;35.15;25.82;97569.31;4994888;23;20064;-83
2022/10/27 10:42:37;;;;;;;8.73;1.88;;;;;;;39.60;19.80;97560.97;4563141;23;19927;-80
2022/10/27 10:45:18;;;;;;;5.88;2.40;;;;;;;40.12;19.65;97559.16;4900377;29;20495;-80
2022/10/27 10:47:47;;;;;;;3.70;1.77;;;;;;;40.82;18.53;97558.50;4899656;29;20053;-80
2022/10/27 10:50:15;;;;;;;4.53;1.30;;;;;;;41.31;17.38;97566.19;4900046;29;20144;-80
2022/10/27 10:52:49;;;;;;;6.25;1.60;;;;;;;41.53;16.63;97564.66;4899789;29;20057;-80
2022/10/27 10:55:23;;;;;;;5.00;1.77;;;;;;;41.41;16.37;97550.34;4900053;29;20422;-79
2022/10/27 10:57:53;;;;;;;4.35;2.00;;;;;;;41.11;17.02;97561.84;4899149;29;20052;-80
2022/10/27 11:00:22;;;;;;;7.25;1.67;;;;;;;40.87;17.12;97554.69;4899382;29;20404;-80
2022/10/27 11:02:53;;;;;;;7.47;1.80;;;;;;;40.95;16.89;97540.81;4899144;29;20053;-80
2022/10/27 11:05:30;;;;;;;5.57;1.70;;;;;;;41.57;16.59;97553.81;4899059;29;20059;-79
2022/10/27 11:07:59;;;;;;;5.55;1.70;;;;;;;42.22;16.05;97549.44;4898654;29;20057;-79
2022/10/27 11:10:29;;;;;;;4.40;1.90;;;;;;;42.62;15.24;97545.38;4899147;29;20060;-79
2022/10/27 11:13:00;;;;;;;7.05;2.10;;;;;;;42.80;14.71;97549.94;4898892;29;20052;-79
2022/10/27 11:15:32;;;;;;;5.65;1.65;;;;;;;42.82;15.00;97544.13;4899159;29;20503;-80
2022/10/27 11:18:10;;;;;;;5.38;1.42;;;;;;;42.81;14.51;97542.50;4900433;29;20068;-80
2022/10/27 11:20:38;;;;;;;5.53;1.50;;;;;;;42.09;15.26;97541.41;4899242;29;20060;-79
2022/10/27 11:23:16;;;;;;;4.00;1.60;;;;;;;41.34;15.74;97529.88;4898691;29;20426;-80
2022/10/27 11:25:45;;;;;;;63.83;9.20;;;;;;;41.10;16.49;97530.16;4898484;29;20049;-79
2022/10/27 11:28:18;;;;;;;5.95;1.20;;;;;;;40.95;15.67;97529.06;4898348;29;20575;-80
2022/10/27 11:30:52;;;;;;;3.00;1.30;;;;;;;40.81;15.82;97526.84;4898495;29;20062;-79
2022/10/27 11:33:32;;;;;;;2.67;1.23;;;;;;;40.88;15.31;97523.47;4898497;29;20139;-79
2022/10/27 11:36:08;;;;;;;6.20;1.95;;;;;;;41.11;15.43;97529.00;4898266;29;20052;-79
2022/10/27 11:38:47;;;;;;;5.22;1.20;;;;;;;41.07;15.44;97523.47;4899217;29;20139;-79
2022/10/27 11:41:21;;;;;;;5.18;1.30;;;;;;;40.23;16.01;97526.63;4898722;29;20053;-80
2022/10/27 11:43:56;;;;;;;3.45;1.13;;;;;;;39.53;16.24;97517.84;4897928;29;20053;-79
2022/10/27 11:46:43;;;;;;;3.72;1.40;;;;;;;39.62;16.49;97516.91;4897819;29;20096;-79
2022/10/27 11:49:16;;;;;;;9.30;2.22;;;;;;;40.22;15.54;97517.66;4897731;29;20087;-79
2022/10/27 11:51:49;;;;;;;8.25;1.25;;;;;;;40.80;15.15;97517.03;4898286;29;20060;-79
2022/10/27 11:54:17;;;;;;;5.43;1.33;;;;;;;41.17;14.91;97516.63;4899222;29;20510;-79
2022/10/27 11:57:00;;;;;;;3.92;1.13;;;;;;;41.41;14.71;97512.78;4898993;29;20347;-79
2022/10/27 11:59:50;;;;;;;7.50;1.75;;;;;;;41.71;14.08;97510.22;4898644;29;20060;-80
2022/10/27 12:02:41;;;;;;;3.60;1.42;;;;;;;41.76;14.63;97504.44;4898773;29;20056;-80
2022/10/27 12:05:10;;;;;;;;;;;;;;;42.04;15.17;97500.63;4899290;29;20063;-79
2022/10/27 12:07:49;;;;;;;3.65;1.52;;;;;;;41.19;14.49;97495.19;4898411;29;19930;-80
2022/10/27 12:10:26;;;;;;;5.47;1.23;;;;;;;39.20;15.76;97496.28;4898468;29;20057;-80
2022/10/27 12:12:59;;;;;;;7.30;1.92;;;;;;;36.97;18.02;97498.38;4898631;29;20131;-80
2022/10/27 12:15:33;;;;;;;3.40;1.40;;;;;;;35.15;19.55;97487.94;4898446;29;20060;-80
2022/10/27 12:18:10;;;;;;;7.88;1.40;;;;;;;33.62;21.24;97485.78;4898715;29;20068;-81
2022/10/27 12:20:44;;;;;;;5.88;1.75;;;;;;;32.46;22.56;97473.84;4900921;29;20052;-80
2022/10/27 12:23:17;;;;;;;5.15;1.40;;;;;;;31.61;23.61;97474.09;4900306;29;20056;-80
2022/10/27 12:25:54;;;;;;;4.57;1.15;;;;;;;30.98;24.73;97472.69;4899613;29;20052;-80
2022/10/27 12:28:25;;;;;;;6.78;1.48;;;;;;;30.49;25.89;97471.22;4898832;29;20053;-80
2022/10/27 12:30:54;;;;;;;6.25;1.60;;;;;;;30.06;25.99;97471.16;4899537;29;20059;-81
2022/10/27 12:33:34;;;;;;;6.38;1.10;;;;;;;29.69;26.69;97464.56;4898667;29;20058;-80
2022/10/27 12:36:08;;;;;;;10.05;1.70;;;;;;;29.26;26.50;97461.72;4899211;29;20052;-81
2022/10/27 12:38:45;;;;;;;5.93;1.45;;;;;;;28.82;27.83;97462.53;4898473;29;20076;-80
2022/10/27 12:41:20;;;;;;;6.10;1.30;;;;;;;28.46;27.98;97460.03;4898330;29;20422;-80
2022/10/27 12:43:55;;;;;;;6.38;1.55;;;;;;;28.20;28.29;97456.66;4898725;29;20049;-81
2022/10/27 12:46:35;;;;;;;4.07;1.23;;;;;;;27.95;28.68;97444.97;4898925;29;20056;-80
2022/10/27 12:49:16;;;;;;;7.32;1.40;;;;;;;27.74;29.42;97446.84;4898116;29;20069;-80
2022/10/27 12:51:51;;;;;;;2.17;1.25;;;;;;;27.56;29.33;97442.09;4897668;29;20063;-80
2022/10/27 12:54:38;;;;;;;5.60;1.60;;;;;;;27.37;29.63;97434.59;4897913;29;20056;-80
2022/10/27 12:57:17;;;;;;;9.93;2.17;;;;;;;27.20;29.92;97436.72;4897691;29;20123;-80
2022/10/27 12:59:56;;;;;;;7.45;1.15;;;;;;;27.05;30.17;97437.53;4897457;29;20048;-81
2022/10/27 13:02:27;;;;;;;5.85;1.45;;;;;;;26.88;30.67;97438.59;4897740;29;20521;-80
2022/10/27 13:05:37;;;;;;;6.13;1.27;;;;;;;26.75;31.24;97431.09;4898393;29;20132;-80
2022/10/27 13:08:32;;;;;;;6.68;1.88;;;;;;;26.66;31.54;97430.81;4884435;29;20072;-80
2022/10/27 13:11:15;;;;;;;6.85;1.70;;;;;;;26.56;31.54;97421.94;4896950;29;20068;-80
2022/10/27 13:14:05;;;;;;;6.60;1.45;;;;;;;26.43;31.67;97423.22;4899569;29;20057;-81
2022/10/27 13:16:42;;;;;;;6.03;1.80;;;;;;;26.33;32.03;97417.84;4896939;29;20053;-80
2022/10/27 13:19:26;;;;;;;3.58;1.60;;;;;;;26.23;32.36;97419.44;4899733;29;20061;-80
2022/10/27 13:22:06;;;;;;;6.72;1.63;;;;;;;26.13;32.49;97416.72;4899795;29;20052;-81
2022/10/27 13:24:42;;;;;;;4.82;1.25;;;;;;;25.99;32.57;97413.72;4899320;29;20511;-80
2022/10/27 13:27:17;;;;;;;4.15;1.50;;;;;;;25.86;32.73;97420.31;4899415;29;20496;-80
2022/10/27 13:29:50;;;;;;;7.78;1.55;;;;;;;25.76;32.98;97412.25;4902387;29;20059;-80
2022/10/27 13:32:39;;;;;;;3.85;1.23;;;;;;;25.64;32.94;97408.97;4899715;29;20061;-80
2022/10/27 13:35:42;;;;;;;3.15;1.35;;;;;;;25.48;33.10;97414.22;4900000;29;20450;-79
2022/10/27 13:38:34;;;;;;;13.18;1.60;;;;;;;25.39;33.41;97406.97;4871769;29;20053;-80
2022/10/27 13:41:02;;;;;;;5.38;1.55;;;;;;;25.31;33.64;97396.75;4903103;29;20061;-79
2022/10/27 13:43:45;;;;;;;5.05;1.23;;;;;;;25.23;33.86;97396.19;4899425;29;20045;-79
2022/10/27 13:55:36;;;;;;;4.32;1.25;;;;;;;25.04;34.43;97405.63;4903238;29;20083;-79
2022/10/27 13:58:35;;;;;;;6.30;1.70;;;;;;;24.99;33.97;97403.72;4902844;29;20056;-79
2022/10/27 14:04:29;;;;;;;9.02;2.38;;;;;;;24.84;33.79;97403.59;4902890;29;20419;-78
2022/10/27 14:09:52;;;;;;;6.18;1.40;;;;;;;24.66;33.08;97405.56;4902191;29;20057;-79
2022/10/27 14:18:27;;;;;;;8.07;1.77;;;;;;;24.37;33.37;97402.31;5974107;23;20030;-80
2022/10/27 14:21:12;;;;;;;5.82;1.70;;;;;;;24.30;33.52;97406.25;4882840;29;20131;-78
2022/10/27 14:23:54;;;;;;;4.95;1.30;;;;;;;24.25;33.70;97404.31;4883190;29;20045;-78
2022/10/27 14:26:38;;;;;;;4.45;1.40;;;;;;;24.20;34.26;97406.91;4883306;29;20053;-78
2022/10/27 14:29:19;;;;;;;4.50;1.55;;;;;;;24.10;34.30;97404.16;4883011;29;20060;-78
2022/10/27 14:37:36;;;;;;;9.90;1.77;;;;;;;23.72;36.32;97400.44;4862217;29;20064;-78
2022/10/27 14:40:17;;;;;;;6.68;1.92;;;;;;;23.62;36.83;97407.25;4863893;29;20057;-78
2022/10/27 14:42:50;;;;;;;6.40;1.50;;;;;;;23.57;37.39;97409.03;4845773;29;20125;-78
2022/10/27 14:45:24;;;;;;;6.07;2.08;;;;;;;23.49;37.73;97407.59;4845272;29;20070;-78
2022/10/27 14:48:04;;;;;;;5.15;1.88;;;;;;;23.44;38.33;97410.19;4845091;29;20428;-78
2022/10/27 14:50:45;;;;;;;5.07;1.75;;;;;;;23.39;38.12;97410.09;4844759;29;20060;-78
2022/10/27 14:53:48;;;;;;;7.15;2.17;;;;;;;23.33;38.80;97409.25;4845231;29;20428;-78
2022/10/27 14:56:20;;;;;;;6.63;1.90;;;;;;;23.21;39.46;97406.66;4844583;29;20061;-78
2022/10/27 14:58:55;;;;;;;5.10;1.98;;;;;;;23.16;39.62;97405.78;4844706;29;20054;-78
2022/10/27 15:01:29;;;;;;;5.18;1.75;;;;;;;23.10;40.17;97407.53;4844899;29;20058;-78
2022/10/27 15:04:15;;;;;;;4.78;2.42;;;;;;;23.03;40.12;97407.72;4845393;29;20046;-79
2022/10/27 15:06:48;;;;;;;6.78;2.22;;;;;;;22.99;40.68;97403.09;4859694;29;20517;-79
2022/10/27 15:09:32;;;;;;;4.72;2.08;;;;;;;22.93;41.03;97406.69;4857201;29;20056;-78
2022/10/27 15:12:07;;;;;;;5.43;1.98;;;;;;;22.85;41.43;97399.94;4846062;29;20113;-78
2022/10/27 15:14:39;;;;;;;6.93;2.20;;;;;;;22.78;41.79;97396.59;4844577;29;20058;-78
2022/10/27 15:17:15;;;;;;;4.65;1.80;;;;;;;22.71;41.79;97395.97;4844856;29;20064;-78
2022/10/27 15:19:47;;;;;;;3.92;1.92;;;;;;;22.65;42.52;97391.59;4844506;29;20061;-78
2022/10/27 15:22:17;;;;;;;14.43;2.40;;;;;;;22.58;42.71;97391.75;4844405;29;20061;-78